sensor_id;sensor_type;location;lat;lon;timestamp;P1;durP1;ratioP1;P2;durP2;ratioP2
45642;SDS011;31358;46.008;11.144;2022-11-30T00:00:14;19.08;;;12.82;;
45642;SDS011;31358;46.008;11.144;2022-11-30T00:02:40;18.27;;;11.20;;
45642;SDS011;31358;46.008;11.144;2022-11-30T00:05:06;18.83;;;11.45;;
45642;SDS011;31358;46.008;11.144;2022-11-30T00:07:32;16.38;;;11.02;;
45642;SDS011;31358;46.008;11.144;2022-11-30T00:09:58;17.45;;;11.02;;
45642;SDS011;31358;46.008;11.144;2022-11-30T00:12:24;18.15;;;12.05;;
45642;SDS011;31358;46.008;11.144;2022-11-30T00:14:49;17.27;;;11.88;;
45642;SDS011;31358;46.008;11.144;2022-11-30T00:17:15;15.82;;;10.90;;
45642;SDS011;31358;46.008;11.144;2022-11-30T00:19:41;15.13;;;10.57;;
45642;SDS011;31358;46.008;11.144;2022-11-30T00:22:07;16.55;;;11.18;;
45642;SDS011;31358;46.008;11.144;2022-11-30T00:24:33;16.30;;;10.88;;
45642;SDS011;31358;46.008;11.144;2022-11-30T00:26:58;18.27;;;11.23;;
45642;SDS011;31358;46.008;11.144;2022-11-30T00:29:24;17.75;;;11.73;;
45642;SDS011;31358;46.008;11.144;2022-11-30T00:31:50;14.23;;;10.52;;
45642;SDS011;31358;46.008;11.144;2022-11-30T00:34:15;16.73;;;10.48;;
45642;SDS011;31358;46.008;11.144;2022-11-30T00:36:41;18.00;;;11.57;;
45642;SDS011;31358;46.008;11.144;2022-11-30T00:39:06;17.33;;;10.65;;
45642;SDS011;31358;46.008;11.144;2022-11-30T00:41:32;17.95;;;12.38;;
45642;SDS011;31358;46.008;11.144;2022-11-30T00:43:58;17.90;;;11.82;;
45642;SDS011;31358;46.008;11.144;2022-11-30T00:46:23;15.75;;;10.52;;
45642;SDS011;31358;46.008;11.144;2022-11-30T00:48:49;18.25;;;11.25;;
45642;SDS011;31358;46.008;11.144;2022-11-30T00:51:15;15.65;;;11.52;;
45642;SDS011;31358;46.008;11.144;2022-11-30T00:53:41;16.52;;;11.30;;
45642;SDS011;31358;46.008;11.144;2022-11-30T00:56:07;17.98;;;12.05;;
45642;SDS011;31358;46.008;11.144;2022-11-30T00:58:33;16.73;;;11.35;;
45642;SDS011;31358;46.008;11.144;2022-11-30T01:00:59;16.45;;;11.68;;
45642;SDS011;31358;46.008;11.144;2022-11-30T01:03:25;16.58;;;11.20;;
45642;SDS011;31358;46.008;11.144;2022-11-30T01:05:50;17.02;;;11.30;;
45642;SDS011;31358;46.008;11.144;2022-11-30T01:08:16;16.88;;;11.00;;
45642;SDS011;31358;46.008;11.144;2022-11-30T01:10:42;17.15;;;12.05;;
45642;SDS011;31358;46.008;11.144;2022-11-30T01:13:08;16.45;;;10.98;;
45642;SDS011;31358;46.008;11.144;2022-11-30T01:15:38;17.38;;;11.00;;
45642;SDS011;31358;46.008;11.144;2022-11-30T01:18:06;21.02;;;11.73;;
45642;SDS011;31358;46.008;11.144;2022-11-30T01:20:31;20.92;;;11.43;;
45642;SDS011;31358;46.008;11.144;2022-11-30T01:22:57;16.77;;;11.95;;
45642;SDS011;31358;46.008;11.144;2022-11-30T01:25:23;20.17;;;11.27;;
45642;SDS011;31358;46.008;11.144;2022-11-30T01:27:49;17.23;;;11.02;;
45642;SDS011;31358;46.008;11.144;2022-11-30T01:30:15;15.55;;;10.65;;
45642;SDS011;31358;46.008;11.144;2022-11-30T01:32:41;15.80;;;10.90;;
45642;SDS011;31358;46.008;11.144;2022-11-30T01:35:07;16.95;;;10.20;;
45642;SDS011;31358;46.008;11.144;2022-11-30T01:37:33;18.42;;;11.98;;
45642;SDS011;31358;46.008;11.144;2022-11-30T01:39:59;17.02;;;12.07;;
45642;SDS011;31358;46.008;11.144;2022-11-30T01:42:24;16.02;;;11.77;;
45642;SDS011;31358;46.008;11.144;2022-11-30T01:44:52;16.85;;;11.23;;
45642;SDS011;31358;46.008;11.144;2022-11-30T01:47:21;17.20;;;11.10;;
45642;SDS011;31358;46.008;11.144;2022-11-30T01:49:50;17.15;;;10.82;;
45642;SDS011;31358;46.008;11.144;2022-11-30T01:52:35;16.67;;;10.18;;
45642;SDS011;31358;46.008;11.144;2022-11-30T01:55:12;17.73;;;11.60;;
45642;SDS011;31358;46.008;11.144;2022-11-30T01:57:46;18.98;;;12.68;;
45642;SDS011;31358;46.008;11.144;2022-11-30T02:03:00;15.80;;;10.38;;
45642;SDS011;31358;46.008;11.144;2022-11-30T02:05:35;15.80;;;10.45;;
45642;SDS011;31358;46.008;11.144;2022-11-30T02:08:04;16.25;;;10.95;;
45642;SDS011;31358;46.008;11.144;2022-11-30T02:10:31;15.90;;;12.50;;
45642;SDS011;31358;46.008;11.144;2022-11-30T02:15:34;18.52;;;11.63;;
45642;SDS011;31358;46.008;11.144;2022-11-30T02:18:23;17.20;;;11.65;;
45642;SDS011;31358;46.008;11.144;2022-11-30T02:21:13;16.20;;;11.77;;
45642;SDS011;31358;46.008;11.144;2022-11-30T02:23:55;16.15;;;11.43;;
45642;SDS011;31358;46.008;11.144;2022-11-30T02:31:49;15.00;;;9.48;;
45642;SDS011;31358;46.008;11.144;2022-11-30T02:34:24;16.25;;;10.35;;
45642;SDS011;31358;46.008;11.144;2022-11-30T02:36:52;15.52;;;10.05;;
45642;SDS011;31358;46.008;11.144;2022-11-30T02:39:22;14.57;;;9.43;;
45642;SDS011;31358;46.008;11.144;2022-11-30T02:41:48;14.70;;;9.52;;
45642;SDS011;31358;46.008;11.144;2022-11-30T02:44:14;15.23;;;10.05;;
45642;SDS011;31358;46.008;11.144;2022-11-30T02:52:08;13.60;;;9.10;;
45642;SDS011;31358;46.008;11.144;2022-11-30T02:54:35;16.98;;;10.80;;
45642;SDS011;31358;46.008;11.144;2022-11-30T02:57:00;15.13;;;10.18;;
45642;SDS011;31358;46.008;11.144;2022-11-30T02:59:26;15.98;;;9.90;;
45642;SDS011;31358;46.008;11.144;2022-11-30T03:01:52;14.23;;;9.00;;
45642;SDS011;31358;46.008;11.144;2022-11-30T03:04:18;14.45;;;9.68;;
45642;SDS011;31358;46.008;11.144;2022-11-30T03:06:44;15.30;;;9.93;;
45642;SDS011;31358;46.008;11.144;2022-11-30T03:09:09;15.60;;;10.05;;
45642;SDS011;31358;46.008;11.144;2022-11-30T03:11:35;17.23;;;9.93;;
45642;SDS011;31358;46.008;11.144;2022-11-30T03:14:01;13.32;;;8.85;;
45642;SDS011;31358;46.008;11.144;2022-11-30T03:16:27;15.68;;;10.57;;
45642;SDS011;31358;46.008;11.144;2022-11-30T03:18:52;14.38;;;9.82;;
45642;SDS011;31358;46.008;11.144;2022-11-30T03:21:18;16.40;;;10.00;;
45642;SDS011;31358;46.008;11.144;2022-11-30T03:23:44;16.63;;;10.88;;
45642;SDS011;31358;46.008;11.144;2022-11-30T03:26:09;16.35;;;9.55;;
45642;SDS011;31358;46.008;11.144;2022-11-30T03:28:35;19.40;;;11.02;;
45642;SDS011;31358;46.008;11.144;2022-11-30T03:31:02;14.57;;;9.40;;
45642;SDS011;31358;46.008;11.144;2022-11-30T03:33:28;16.85;;;10.63;;
45642;SDS011;31358;46.008;11.144;2022-11-30T03:36:00;15.82;;;10.55;;
45642;SDS011;31358;46.008;11.144;2022-11-30T03:38:28;17.65;;;11.43;;
45642;SDS011;31358;46.008;11.144;2022-11-30T03:41:00;16.17;;;10.45;;
45642;SDS011;31358;46.008;11.144;2022-11-30T03:43:27;17.08;;;10.27;;
45642;SDS011;31358;46.008;11.144;2022-11-30T03:45:53;17.23;;;10.50;;
45642;SDS011;31358;46.008;11.144;2022-11-30T03:48:19;15.68;;;9.90;;
45642;SDS011;31358;46.008;11.144;2022-11-30T03:50:45;14.57;;;9.35;;
45642;SDS011;31358;46.008;11.144;2022-11-30T03:53:14;15.82;;;10.10;;
45642;SDS011;31358;46.008;11.144;2022-11-30T03:55:43;16.10;;;10.65;;
45642;SDS011;31358;46.008;11.144;2022-11-30T03:58:09;15.30;;;9.77;;
45642;SDS011;31358;46.008;11.144;2022-11-30T04:00:35;15.93;;;10.40;;
45642;SDS011;31358;46.008;11.144;2022-11-30T04:03:01;16.00;;;10.68;;
45642;SDS011;31358;46.008;11.144;2022-11-30T04:05:27;14.63;;;9.23;;
45642;SDS011;31358;46.008;11.144;2022-11-30T04:07:53;13.32;;;9.77;;
45642;SDS011;31358;46.008;11.144;2022-11-30T04:10:18;17.35;;;10.60;;
45642;SDS011;31358;46.008;11.144;2022-11-30T04:12:44;16.73;;;10.45;;
45642;SDS011;31358;46.008;11.144;2022-11-30T04:15:10;17.52;;;10.52;;
45642;SDS011;31358;46.008;11.144;2022-11-30T04:17:36;17.90;;;10.25;;
45642;SDS011;31358;46.008;11.144;2022-11-30T04:20:02;15.32;;;10.27;;
45642;SDS011;31358;46.008;11.144;2022-11-30T04:22:28;16.98;;;11.32;;
45642;SDS011;31358;46.008;11.144;2022-11-30T04:24:54;16.60;;;10.60;;
45642;SDS011;31358;46.008;11.144;2022-11-30T04:27:19;15.15;;;9.57;;
45642;SDS011;31358;46.008;11.144;2022-11-30T04:29:45;16.85;;;10.70;;
45642;SDS011;31358;46.008;11.144;2022-11-30T04:32:11;14.73;;;10.13;;
45642;SDS011;31358;46.008;11.144;2022-11-30T04:34:36;15.82;;;10.38;;
45642;SDS011;31358;46.008;11.144;2022-11-30T04:37:02;19.05;;;10.68;;
45642;SDS011;31358;46.008;11.144;2022-11-30T04:39:28;15.30;;;9.95;;
45642;SDS011;31358;46.008;11.144;2022-11-30T04:41:56;17.55;;;10.40;;
45642;SDS011;31358;46.008;11.144;2022-11-30T04:44:22;14.48;;;9.70;;
45642;SDS011;31358;46.008;11.144;2022-11-30T04:46:47;15.88;;;9.48;;
45642;SDS011;31358;46.008;11.144;2022-11-30T04:49:13;18.45;;;9.80;;
45642;SDS011;31358;46.008;11.144;2022-11-30T04:51:39;14.85;;;9.48;;
45642;SDS011;31358;46.008;11.144;2022-11-30T04:54:04;13.40;;;8.82;;
45642;SDS011;31358;46.008;11.144;2022-11-30T04:56:30;14.20;;;9.63;;
45642;SDS011;31358;46.008;11.144;2022-11-30T04:58:56;15.30;;;8.85;;
45642;SDS011;31358;46.008;11.144;2022-11-30T05:01:21;13.00;;;8.23;;
45642;SDS011;31358;46.008;11.144;2022-11-30T05:03:47;13.23;;;7.78;;
45642;SDS011;31358;46.008;11.144;2022-11-30T05:06:13;13.80;;;8.35;;
45642;SDS011;31358;46.008;11.144;2022-11-30T05:08:39;12.48;;;7.97;;
45642;SDS011;31358;46.008;11.144;2022-11-30T05:11:04;11.73;;;7.57;;
45642;SDS011;31358;46.008;11.144;2022-11-30T05:13:30;14.10;;;9.45;;
45642;SDS011;31358;46.008;11.144;2022-11-30T05:15:56;13.18;;;8.27;;
45642;SDS011;31358;46.008;11.144;2022-11-30T05:18:22;16.33;;;9.52;;
45642;SDS011;31358;46.008;11.144;2022-11-30T05:20:48;13.10;;;8.82;;
45642;SDS011;31358;46.008;11.144;2022-11-30T05:23:15;13.63;;;9.15;;
45642;SDS011;31358;46.008;11.144;2022-11-30T05:25:41;15.45;;;10.30;;
45642;SDS011;31358;46.008;11.144;2022-11-30T05:28:08;14.40;;;9.68;;
45642;SDS011;31358;46.008;11.144;2022-11-30T05:30:33;14.07;;;9.55;;
45642;SDS011;31358;46.008;11.144;2022-11-30T05:32:59;15.95;;;9.98;;
45642;SDS011;31358;46.008;11.144;2022-11-30T05:35:25;14.52;;;9.43;;
45642;SDS011;31358;46.008;11.144;2022-11-30T05:37:50;15.57;;;10.27;;
45642;SDS011;31358;46.008;11.144;2022-11-30T05:40:16;15.05;;;9.07;;
45642;SDS011;31358;46.008;11.144;2022-11-30T05:42:42;15.27;;;9.60;;
45642;SDS011;31358;46.008;11.144;2022-11-30T05:45:07;14.93;;;10.30;;
45642;SDS011;31358;46.008;11.144;2022-11-30T05:47:33;15.80;;;10.10;;
45642;SDS011;31358;46.008;11.144;2022-11-30T05:49:59;16.23;;;10.50;;
45642;SDS011;31358;46.008;11.144;2022-11-30T05:52:25;11.95;;;8.52;;
45642;SDS011;31358;46.008;11.144;2022-11-30T05:54:50;13.02;;;8.98;;
45642;SDS011;31358;46.008;11.144;2022-11-30T05:57:16;14.70;;;9.00;;
45642;SDS011;31358;46.008;11.144;2022-11-30T05:59:42;13.85;;;8.68;;
45642;SDS011;31358;46.008;11.144;2022-11-30T06:02:07;15.50;;;9.02;;
45642;SDS011;31358;46.008;11.144;2022-11-30T06:04:33;13.00;;;8.25;;
45642;SDS011;31358;46.008;11.144;2022-11-30T06:06:59;14.73;;;8.55;;
45642;SDS011;31358;46.008;11.144;2022-11-30T06:09:25;13.90;;;8.93;;
45642;SDS011;31358;46.008;11.144;2022-11-30T06:11:50;16.17;;;8.23;;
45642;SDS011;31358;46.008;11.144;2022-11-30T06:14:16;13.07;;;8.75;;
45642;SDS011;31358;46.008;11.144;2022-11-30T06:16:42;14.38;;;9.15;;
45642;SDS011;31358;46.008;11.144;2022-11-30T06:19:08;13.52;;;9.10;;
45642;SDS011;31358;46.008;11.144;2022-11-30T06:21:33;17.08;;;10.98;;
45642;SDS011;31358;46.008;11.144;2022-11-30T06:23:59;13.55;;;9.15;;
45642;SDS011;31358;46.008;11.144;2022-11-30T06:26:25;16.88;;;9.13;;
45642;SDS011;31358;46.008;11.144;2022-11-30T06:28:50;19.65;;;12.52;;
45642;SDS011;31358;46.008;11.144;2022-11-30T06:31:16;15.32;;;9.60;;
45642;SDS011;31358;46.008;11.144;2022-11-30T06:33:42;13.63;;;8.80;;
45642;SDS011;31358;46.008;11.144;2022-11-30T06:36:07;17.13;;;9.18;;
45642;SDS011;31358;46.008;11.144;2022-11-30T06:38:33;15.85;;;9.88;;
45642;SDS011;31358;46.008;11.144;2022-11-30T06:41:03;15.63;;;9.65;;
45642;SDS011;31358;46.008;11.144;2022-11-30T06:43:36;15.13;;;8.85;;
45642;SDS011;31358;46.008;11.144;2022-11-30T06:46:04;13.65;;;8.82;;
45642;SDS011;31358;46.008;11.144;2022-11-30T06:48:30;14.40;;;9.40;;
45642;SDS011;31358;46.008;11.144;2022-11-30T06:50:56;16.73;;;9.75;;
45642;SDS011;31358;46.008;11.144;2022-11-30T06:53:22;16.00;;;9.25;;
45642;SDS011;31358;46.008;11.144;2022-11-30T06:55:48;15.15;;;9.48;;
45642;SDS011;31358;46.008;11.144;2022-11-30T06:58:14;13.38;;;8.30;;
45642;SDS011;31358;46.008;11.144;2022-11-30T07:00:40;16.25;;;10.45;;
45642;SDS011;31358;46.008;11.144;2022-11-30T07:03:06;13.77;;;8.80;;
45642;SDS011;31358;46.008;11.144;2022-11-30T07:05:33;13.50;;;8.57;;
45642;SDS011;31358;46.008;11.144;2022-11-30T07:08:05;16.30;;;9.45;;
45642;SDS011;31358;46.008;11.144;2022-11-30T07:10:30;15.02;;;9.32;;
45642;SDS011;31358;46.008;11.144;2022-11-30T07:12:56;13.30;;;9.18;;
45642;SDS011;31358;46.008;11.144;2022-11-30T07:15:21;13.48;;;8.65;;
45642;SDS011;31358;46.008;11.144;2022-11-30T07:17:47;13.65;;;8.48;;
45642;SDS011;31358;46.008;11.144;2022-11-30T07:20:13;14.75;;;8.57;;
45642;SDS011;31358;46.008;11.144;2022-11-30T07:22:38;12.85;;;7.90;;
45642;SDS011;31358;46.008;11.144;2022-11-30T07:25:04;11.98;;;8.00;;
45642;SDS011;31358;46.008;11.144;2022-11-30T07:27:49;12.63;;;7.72;;
45642;SDS011;31358;46.008;11.144;2022-11-30T07:30:14;13.48;;;8.07;;
45642;SDS011;31358;46.008;11.144;2022-11-30T07:32:40;11.82;;;7.68;;
45642;SDS011;31358;46.008;11.144;2022-11-30T07:35:06;12.98;;;8.50;;
45642;SDS011;31358;46.008;11.144;2022-11-30T07:37:32;14.52;;;8.23;;
45642;SDS011;31358;46.008;11.144;2022-11-30T07:39:57;11.40;;;7.57;;
45642;SDS011;31358;46.008;11.144;2022-11-30T07:42:23;17.67;;;8.07;;
45642;SDS011;31358;46.008;11.144;2022-11-30T07:44:49;13.13;;;7.43;;
45642;SDS011;31358;46.008;11.144;2022-11-30T07:47:15;13.07;;;8.05;;
45642;SDS011;31358;46.008;11.144;2022-11-30T07:49:40;12.63;;;7.20;;
45642;SDS011;31358;46.008;11.144;2022-11-30T07:52:06;13.85;;;7.72;;
45642;SDS011;31358;46.008;11.144;2022-11-30T07:54:32;13.10;;;7.72;;
45642;SDS011;31358;46.008;11.144;2022-11-30T07:56:58;11.15;;;6.60;;
45642;SDS011;31358;46.008;11.144;2022-11-30T07:59:24;10.48;;;7.22;;
45642;SDS011;31358;46.008;11.144;2022-11-30T08:01:49;10.65;;;6.90;;
45642;SDS011;31358;46.008;11.144;2022-11-30T08:04:15;10.50;;;6.65;;
45642;SDS011;31358;46.008;11.144;2022-11-30T08:06:41;13.95;;;8.02;;
45642;SDS011;31358;46.008;11.144;2022-11-30T08:09:07;11.60;;;7.45;;
45642;SDS011;31358;46.008;11.144;2022-11-30T08:11:35;11.93;;;7.57;;
45642;SDS011;31358;46.008;11.144;2022-11-30T08:14:02;13.20;;;7.28;;
45642;SDS011;31358;46.008;11.144;2022-11-30T08:16:28;13.27;;;8.40;;
45642;SDS011;31358;46.008;11.144;2022-11-30T08:18:55;10.65;;;7.43;;
45642;SDS011;31358;46.008;11.144;2022-11-30T08:21:21;11.68;;;7.70;;
45642;SDS011;31358;46.008;11.144;2022-11-30T08:23:49;12.73;;;7.15;;
45642;SDS011;31358;46.008;11.144;2022-11-30T08:26:21;11.50;;;7.47;;
45642;SDS011;31358;46.008;11.144;2022-11-30T08:28:52;13.52;;;8.48;;
45642;SDS011;31358;46.008;11.144;2022-11-30T08:31:23;12.70;;;8.65;;
45642;SDS011;31358;46.008;11.144;2022-11-30T08:34:03;12.75;;;7.30;;
45642;SDS011;31358;46.008;11.144;2022-11-30T08:36:30;15.85;;;7.65;;
45642;SDS011;31358;46.008;11.144;2022-11-30T08:38:57;12.52;;;7.60;;
45642;SDS011;31358;46.008;11.144;2022-11-30T08:41:24;12.93;;;8.07;;
45642;SDS011;31358;46.008;11.144;2022-11-30T08:43:50;11.57;;;8.20;;
45642;SDS011;31358;46.008;11.144;2022-11-30T08:46:18;16.33;;;10.70;;
45642;SDS011;31358;46.008;11.144;2022-11-30T08:48:45;17.58;;;11.25;;
45642;SDS011;31358;46.008;11.144;2022-11-30T08:51:12;17.58;;;10.65;;
45642;SDS011;31358;46.008;11.144;2022-11-30T08:53:41;17.73;;;10.90;;
45642;SDS011;31358;46.008;11.144;2022-11-30T08:56:12;19.75;;;11.50;;
45642;SDS011;31358;46.008;11.144;2022-11-30T08:58:42;17.00;;;11.68;;
45642;SDS011;31358;46.008;11.144;2022-11-30T09:03:39;21.27;;;14.50;;
45642;SDS011;31358;46.008;11.144;2022-11-30T09:06:06;17.23;;;11.95;;
45642;SDS011;31358;46.008;11.144;2022-11-30T09:08:34;22.25;;;18.75;;
45642;SDS011;31358;46.008;11.144;2022-11-30T09:11:09;17.25;;;11.70;;
45642;SDS011;31358;46.008;11.144;2022-11-30T09:13:37;12.40;;;8.32;;
45642;SDS011;31358;46.008;11.144;2022-11-30T09:16:03;15.60;;;9.27;;
45642;SDS011;31358;46.008;11.144;2022-11-30T09:18:29;14.35;;;9.77;;
45642;SDS011;31358;46.008;11.144;2022-11-30T09:21:02;14.48;;;9.25;;
45642;SDS011;31358;46.008;11.144;2022-11-30T09:25:59;13.40;;;7.20;;
45642;SDS011;31358;46.008;11.144;2022-11-30T09:28:28;16.95;;;8.73;;
45642;SDS011;31358;46.008;11.144;2022-11-30T09:31:04;14.38;;;8.10;;
45642;SDS011;31358;46.008;11.144;2022-11-30T09:33:32;13.02;;;8.38;;
45642;SDS011;31358;46.008;11.144;2022-11-30T09:35:59;13.38;;;8.30;;
45642;SDS011;31358;46.008;11.144;2022-11-30T09:38:27;10.52;;;6.93;;
45642;SDS011;31358;46.008;11.144;2022-11-30T09:40:54;11.75;;;7.95;;
45642;SDS011;31358;46.008;11.144;2022-11-30T09:46:11;10.02;;;6.63;;
45642;SDS011;31358;46.008;11.144;2022-11-30T09:51:28;10.32;;;6.35;;
45642;SDS011;31358;46.008;11.144;2022-11-30T09:54:05;11.50;;;8.05;;
45642;SDS011;31358;46.008;11.144;2022-11-30T09:56:38;11.35;;;7.55;;
45642;SDS011;31358;46.008;11.144;2022-11-30T10:01:50;10.73;;;7.35;;
45642;SDS011;31358;46.008;11.144;2022-11-30T10:04:26;10.73;;;6.65;;
45642;SDS011;31358;46.008;11.144;2022-11-30T10:26:22;14.45;;;8.23;;
45642;SDS011;31358;46.008;11.144;2022-11-30T10:29:09;15.27;;;9.07;;
45642;SDS011;31358;46.008;11.144;2022-11-30T10:34:15;13.25;;;8.32;;
45642;SDS011;31358;46.008;11.144;2022-11-30T10:42:34;14.43;;;8.82;;
45642;SDS011;31358;46.008;11.144;2022-11-30T10:45:10;12.50;;;9.00;;
45642;SDS011;31358;46.008;11.144;2022-11-30T10:50:34;13.63;;;8.77;;
45642;SDS011;31358;46.008;11.144;2022-11-30T10:53:00;13.13;;;8.07;;
45642;SDS011;31358;46.008;11.144;2022-11-30T10:55:30;14.55;;;7.93;;
45642;SDS011;31358;46.008;11.144;2022-11-30T10:58:05;17.13;;;8.95;;
45642;SDS011;31358;46.008;11.144;2022-11-30T11:03:25;21.90;;;11.07;;
45642;SDS011;31358;46.008;11.144;2022-11-30T11:08:39;11.30;;;7.95;;
45642;SDS011;31358;46.008;11.144;2022-11-30T11:14:17;15.98;;;8.15;;
45642;SDS011;31358;46.008;11.144;2022-11-30T11:16:57;14.30;;;9.57;;
45642;SDS011;31358;46.008;11.144;2022-11-30T11:21:57;14.55;;;9.10;;
45642;SDS011;31358;46.008;11.144;2022-11-30T11:24:38;14.13;;;8.63;;
45642;SDS011;31358;46.008;11.144;2022-11-30T11:27:04;13.02;;;9.50;;
45642;SDS011;31358;46.008;11.144;2022-11-30T11:29:31;14.07;;;8.40;;
45642;SDS011;31358;46.008;11.144;2022-11-30T11:32:14;12.95;;;8.18;;
45642;SDS011;31358;46.008;11.144;2022-11-30T11:34:43;13.85;;;9.68;;
45642;SDS011;31358;46.008;11.144;2022-11-30T11:40:09;13.63;;;8.77;;
45642;SDS011;31358;46.008;11.144;2022-11-30T11:42:50;12.38;;;8.20;;
45642;SDS011;31358;46.008;11.144;2022-11-30T11:45:19;16.20;;;9.60;;
45642;SDS011;31358;46.008;11.144;2022-11-30T11:50:30;16.10;;;9.70;;
45642;SDS011;31358;46.008;11.144;2022-11-30T11:53:12;13.93;;;8.80;;
45642;SDS011;31358;46.008;11.144;2022-11-30T11:55:40;15.40;;;10.48;;
45642;SDS011;31358;46.008;11.144;2022-11-30T11:58:07;14.43;;;9.52;;
45642;SDS011;31358;46.008;11.144;2022-11-30T12:00:46;13.73;;;9.13;;
45642;SDS011;31358;46.008;11.144;2022-11-30T12:05:47;14.95;;;9.18;;
45642;SDS011;31358;46.008;11.144;2022-11-30T12:10:53;15.38;;;9.30;;
45642;SDS011;31358;46.008;11.144;2022-11-30T12:13:42;12.25;;;8.20;;
45642;SDS011;31358;46.008;11.144;2022-11-30T12:21:36;11.32;;;6.60;;
45642;SDS011;31358;46.008;11.144;2022-11-30T12:46:07;8.15;;;4.60;;
45642;SDS011;31358;46.008;11.144;2022-11-30T12:49:01;7.18;;;4.35;;
45642;SDS011;31358;46.008;11.144;2022-11-30T13:05:23;7.00;;;4.07;;
45642;SDS011;31358;46.008;11.144;2022-11-30T13:07:58;9.10;;;5.10;;
45642;SDS011;31358;46.008;11.144;2022-11-30T13:13:19;7.43;;;4.30;;
45642;SDS011;31358;46.008;11.144;2022-11-30T13:15:52;7.50;;;3.70;;
45642;SDS011;31358;46.008;11.144;2022-11-30T13:18:18;8.60;;;4.45;;
45642;SDS011;31358;46.008;11.144;2022-11-30T13:29:10;7.38;;;4.40;;
45642;SDS011;31358;46.008;11.144;2022-11-30T13:31:50;7.68;;;4.20;;
45642;SDS011;31358;46.008;11.144;2022-11-30T13:34:23;6.60;;;3.55;;
45642;SDS011;31358;46.008;11.144;2022-11-30T13:36:50;6.97;;;3.80;;
45642;SDS011;31358;46.008;11.144;2022-11-30T13:39:48;6.63;;;3.95;;
45642;SDS011;31358;46.008;11.144;2022-11-30T13:42:23;7.20;;;4.03;;
45642;SDS011;31358;46.008;11.144;2022-11-30T13:44:52;6.63;;;3.97;;
45642;SDS011;31358;46.008;11.144;2022-11-30T13:47:25;8.50;;;5.18;;
45642;SDS011;31358;46.008;11.144;2022-11-30T13:49:59;36.90;;;21.08;;
45642;SDS011;31358;46.008;11.144;2022-11-30T13:58:12;10.95;;;8.05;;
45642;SDS011;31358;46.008;11.144;2022-11-30T14:05:53;10.40;;;5.90;;
45642;SDS011;31358;46.008;11.144;2022-11-30T14:10:46;8.93;;;5.82;;
45642;SDS011;31358;46.008;11.144;2022-11-30T14:23:18;7.38;;;5.00;;
45642;SDS011;31358;46.008;11.144;2022-11-30T14:25:56;10.98;;;6.10;;
45642;SDS011;31358;46.008;11.144;2022-11-30T14:28:39;9.82;;;5.65;;
45642;SDS011;31358;46.008;11.144;2022-11-30T14:31:24;9.98;;;5.47;;
45642;SDS011;31358;46.008;11.144;2022-11-30T14:36:22;17.73;;;10.85;;
45642;SDS011;31358;46.008;11.144;2022-11-30T14:38:51;9.43;;;5.90;;
45642;SDS011;31358;46.008;11.144;2022-11-30T14:41:21;10.20;;;6.07;;
45642;SDS011;31358;46.008;11.144;2022-11-30T14:43:59;7.32;;;4.95;;
45642;SDS011;31358;46.008;11.144;2022-11-30T14:46:27;7.20;;;3.97;;
45642;SDS011;31358;46.008;11.144;2022-11-30T14:51:53;8.35;;;4.35;;
45642;SDS011;31358;46.008;11.144;2022-11-30T14:54:33;11.73;;;5.65;;
45642;SDS011;31358;46.008;11.144;2022-11-30T14:57:17;9.35;;;5.90;;
45642;SDS011;31358;46.008;11.144;2022-11-30T14:59:49;7.90;;;4.43;;
45642;SDS011;31358;46.008;11.144;2022-11-30T15:04:50;8.82;;;4.80;;
45642;SDS011;31358;46.008;11.144;2022-11-30T15:07:17;8.27;;;5.22;;
45642;SDS011;31358;46.008;11.144;2022-11-30T15:09:44;9.25;;;5.47;;
45642;SDS011;31358;46.008;11.144;2022-11-30T15:12:19;7.93;;;5.68;;
45642;SDS011;31358;46.008;11.144;2022-11-30T15:15:03;9.23;;;5.97;;
45642;SDS011;31358;46.008;11.144;2022-11-30T15:20:46;10.05;;;6.05;;
45642;SDS011;31358;46.008;11.144;2022-11-30T15:23:22;12.48;;;6.45;;
45642;SDS011;31358;46.008;11.144;2022-11-30T15:25:49;11.98;;;6.90;;
45642;SDS011;31358;46.008;11.144;2022-11-30T15:28:21;10.93;;;6.93;;
45642;SDS011;31358;46.008;11.144;2022-11-30T15:31:09;9.27;;;5.20;;
45642;SDS011;31358;46.008;11.144;2022-11-30T15:33:45;10.88;;;5.70;;
45642;SDS011;31358;46.008;11.144;2022-11-30T15:36:12;9.95;;;5.85;;
45642;SDS011;31358;46.008;11.144;2022-11-30T15:38:39;8.40;;;5.15;;
45642;SDS011;31358;46.008;11.144;2022-11-30T15:41:15;10.18;;;5.55;;
45642;SDS011;31358;46.008;11.144;2022-11-30T15:43:46;8.50;;;4.97;;
45642;SDS011;31358;46.008;11.144;2022-11-30T15:46:27;10.55;;;5.93;;
45642;SDS011;31358;46.008;11.144;2022-11-30T15:49:02;11.18;;;5.68;;
45642;SDS011;31358;46.008;11.144;2022-11-30T15:51:59;10.90;;;6.22;;
45642;SDS011;31358;46.008;11.144;2022-11-30T15:54:46;9.32;;;5.22;;
45642;SDS011;31358;46.008;11.144;2022-11-30T15:57:14;8.73;;;5.03;;
45642;SDS011;31358;46.008;11.144;2022-11-30T15:59:41;10.30;;;5.55;;
45642;SDS011;31358;46.008;11.144;2022-11-30T16:02:22;9.82;;;5.10;;
45642;SDS011;31358;46.008;11.144;2022-11-30T16:07:27;8.73;;;5.43;;
45642;SDS011;31358;46.008;11.144;2022-11-30T16:10:32;10.82;;;5.72;;
45642;SDS011;31358;46.008;11.144;2022-11-30T16:12:57;9.27;;;5.63;;
45642;SDS011;31358;46.008;11.144;2022-11-30T16:15:23;8.27;;;4.80;;
45642;SDS011;31358;46.008;11.144;2022-11-30T16:17:52;8.93;;;5.03;;
45642;SDS011;31358;46.008;11.144;2022-11-30T16:20:24;10.73;;;5.78;;
45642;SDS011;31358;46.008;11.144;2022-11-30T16:22:50;9.13;;;4.45;;
45642;SDS011;31358;46.008;11.144;2022-11-30T16:25:17;8.90;;;5.15;;
45642;SDS011;31358;46.008;11.144;2022-11-30T16:27:47;8.57;;;5.53;;
45642;SDS011;31358;46.008;11.144;2022-11-30T16:30:14;11.30;;;5.25;;
45642;SDS011;31358;46.008;11.144;2022-11-30T16:32:41;8.68;;;4.90;;
45642;SDS011;31358;46.008;11.144;2022-11-30T16:35:36;8.68;;;5.70;;
45642;SDS011;31358;46.008;11.144;2022-11-30T16:37:59;9.05;;;4.90;;
45642;SDS011;31358;46.008;11.144;2022-11-30T16:40:25;9.55;;;5.18;;
45642;SDS011;31358;46.008;11.144;2022-11-30T16:42:50;8.27;;;5.10;;
45642;SDS011;31358;46.008;11.144;2022-11-30T16:45:18;10.70;;;6.25;;
45642;SDS011;31358;46.008;11.144;2022-11-30T16:47:44;8.27;;;4.60;;
45642;SDS011;31358;46.008;11.144;2022-11-30T16:50:10;9.98;;;5.80;;
45642;SDS011;31358;46.008;11.144;2022-11-30T16:52:37;8.45;;;4.70;;
45642;SDS011;31358;46.008;11.144;2022-11-30T16:55:14;8.43;;;5.35;;
45642;SDS011;31358;46.008;11.144;2022-11-30T16:57:41;7.28;;;4.43;;
45642;SDS011;31358;46.008;11.144;2022-11-30T17:00:08;10.10;;;5.65;;
45642;SDS011;31358;46.008;11.144;2022-11-30T17:02:36;11.65;;;5.20;;
45642;SDS011;31358;46.008;11.144;2022-11-30T17:05:09;7.13;;;4.57;;
45642;SDS011;31358;46.008;11.144;2022-11-30T17:07:36;9.18;;;4.95;;
45642;SDS011;31358;46.008;11.144;2022-11-30T17:10:03;7.75;;;4.57;;
45642;SDS011;31358;46.008;11.144;2022-11-30T17:12:29;8.57;;;4.75;;
45642;SDS011;31358;46.008;11.144;2022-11-30T17:14:55;9.68;;;5.55;;
45642;SDS011;31358;46.008;11.144;2022-11-30T17:17:21;9.77;;;5.28;;
45642;SDS011;31358;46.008;11.144;2022-11-30T17:19:46;9.23;;;4.88;;